Time;durP1;ratioP1;P1;durP2;ratioP2;P2;SDS_P1;SDS_P2;PMS_P1;PMS_P2;Temp;Humidity;BMP_temperature;BMP_pressure;BME280_temperature;BME280_humidity;BME280_pressure;Samples;Min_cycle;Max_cycle;Signal;HPM_P1;HPM_P2
2023/03/27 00:00:00;;;;;;;6.73;3.63;;;;;;;2.00;78.92;100843.47;5113736;28;20280;-67
2023/03/27 00:02:27;;;;;;;7.97;3.80;;;;;;;1.97;79.03;100850.66;5113952;28;20184;-67
2023/03/27 00:04:54;;;;;;;8.03;3.47;;;;;;;1.93;79.06;100857.81;5113953;28;20188;-67
2023/03/27 00:07:21;;;;;;;4.60;3.93;;;;;;;1.92;79.32;100854.31;5113656;28;20186;-67
2023/03/27 00:09:47;;;;;;;9.70;3.70;;;;;;;1.90;79.49;100857.94;5113362;28;20184;-67
2023/03/27 00:12:14;;;;;;;4.77;3.70;;;;;;;1.83;79.58;100865.19;5113392;28;20192;-67
2023/03/27 00:14:40;;;;;;;3.37;3.00;;;;;;;1.80;79.71;100869.72;5113350;28;20191;-67
2023/03/27 00:17:06;;;;;;;7.40;3.10;;;;;;;1.81;79.89;100871.44;5112049;28;20189;-67
2023/03/27 00:19:33;;;;;;;10.67;3.50;;;;;;;1.84;79.74;100869.53;5113285;28;20597;-67
2023/03/27 00:21:59;;;;;;;7.40;3.97;;;;;;;1.81;79.65;100882.00;5115393;28;20208;-67
2023/03/27 00:24:26;;;;;;;19.17;3.73;;;;;;;1.73;79.64;100884.91;5117089;28;20213;-67
2023/03/27 00:26:53;;;;;;;9.07;3.47;;;;;;;1.70;79.97;100891.13;5117190;28;20200;-67
2023/03/27 00:29:20;;;;;;;4.83;3.30;;;;;;;1.63;80.02;100892.25;5098814;28;20682;-67
2023/03/27 00:31:46;;;;;;;4.43;3.43;;;;;;;1.69;80.29;100901.72;5117012;28;20659;-67
2023/03/27 00:34:13;;;;;;;5.70;3.13;;;;;;;1.68;80.71;100905.31;5117442;28;20235;-67
2023/03/27 00:36:39;;;;;;;3.93;3.53;;;;;;;1.64;80.75;100912.44;5116904;28;20188;-66
2023/03/27 00:39:05;;;;;;;6.17;3.23;;;;;;;1.62;80.24;100914.25;5117095;28;20188;-66
2023/03/27 00:41:32;;;;;;;7.87;3.83;;;;;;;1.59;80.19;100914.38;5115722;28;20276;-66
2023/03/27 00:43:59;;;;;;;7.50;3.20;;;;;;;1.61;80.84;100909.91;5116762;28;20293;-67
2023/03/27 00:46:41;;;;;;;12.17;4.00;;;;;;;1.56;80.65;100917.09;5117229;28;20188;-67
2023/03/27 00:49:10;;;;;;;4.97;3.87;;;;;;;1.58;80.80;100914.41;5098431;28;20187;-67
2023/03/27 00:51:40;;;;;;;5.40;3.10;;;;;;;1.56;81.17;100913.63;5098358;28;20185;-66
2023/03/27 00:54:07;;;;;;;10.83;3.33;;;;;;;1.49;80.84;100911.16;5116451;28;20304;-67
2023/03/27 00:56:37;;;;;;;5.37;3.47;;;;;;;1.49;80.77;100913.78;5116558;28;20670;-67
2023/03/27 00:59:09;;;;;;;3.80;3.50;;;;;;;1.39;80.98;100922.03;5098222;28;20185;-66
2023/03/27 01:01:37;;;;;;;3.50;3.30;;;;;;;1.37;81.49;100923.88;5116687;28;20557;-66
2023/03/27 01:04:06;;;;;;;11.47;3.30;;;;;;;1.37;81.36;100924.72;5116357;28;20262;-67
2023/03/27 01:06:34;;;;;;;12.80;3.07;;;;;;;1.35;81.01;100929.19;5116353;28;20264;-67
2023/03/27 01:09:01;;;;;;;4.10;3.10;;;;;;;1.34;81.63;100937.13;5098376;28;20663;-66
2023/03/27 01:11:45;;;;;;;4.50;2.57;;;;;;;1.35;81.46;100944.16;5097954;28;20565;-66
2023/03/27 01:14:27;;;;;;;11.53;3.57;;;;;;;1.32;81.75;100942.47;5116146;28;20204;-67
2023/03/27 01:17:33;;;;;;;5.97;3.07;;;;;;;1.36;81.21;100948.50;5097904;28;20192;-66
2023/03/27 01:20:23;;;;;;;10.43;3.03;;;;;;;1.33;81.80;100951.25;5116600;28;20169;-66
2023/03/27 01:23:41;;;;;;;5.60;3.20;;;;;;;1.32;81.78;100958.31;5115246;28;20613;-66
2023/03/27 01:26:57;;;;;;;13.83;3.53;;;;;;;1.33;81.62;100957.38;5080410;28;20714;-66
2023/03/27 01:29:51;;;;;;;16.97;3.60;;;;;;;1.27;81.60;100969.00;5098968;28;20234;-66
2023/03/27 01:32:24;;;;;;;8.50;2.43;;;;;;;1.23;82.00;100969.13;5099008;28;20246;-67
2023/03/27 01:35:13;;;;;;;10.80;3.53;;;;;;;1.23;81.72;100974.41;5115853;28;20177;-67
2023/03/27 01:38:02;;;;;;;7.50;2.77;;;;;;;1.13;81.94;100981.72;5114621;28;20614;-67
2023/03/27 01:40:31;;;;;;;12.40;3.20;;;;;;;1.24;82.18;100989.31;5115925;28;20666;-67
2023/03/27 01:43:08;;;;;;;8.80;3.00;;;;;;;1.25;81.83;100991.06;5115556;28;20213;-67
2023/03/27 01:45:40;;;;;;;7.97;3.97;;;;;;;1.23;81.97;100992.88;5097367;28;20624;-66
2023/03/27 01:48:16;;;;;;;4.13;2.80;;;;;;;1.25;81.42;100996.34;5097299;28;20189;-66
2023/03/27 01:50:47;;;;;;;3.57;2.30;;;;;;;1.21;80.94;100992.91;5097259;28;20173;-66
2023/03/27 01:53:22;;;;;;;3.30;2.47;;;;;;;1.17;81.15;100996.53;5115437;28;20215;-67
2023/03/27 01:55:58;;;;;;;2.47;2.30;;;;;;;1.13;81.37;100999.31;5115705;28;20173;-66
2023/03/27 01:58:32;;;;;;;9.30;2.40;;;;;;;1.08;81.14;101004.72;5097355;28;20193;-66
2023/03/27 02:01:00;;;;;;;3.80;2.60;;;;;;;1.14;82.03;101012.44;5097552;28;20236;-66
2023/03/27 02:03:32;;;;;;;7.47;2.93;;;;;;;1.08;81.44;101009.13;5113905;28;20204;-67
2023/03/27 02:06:07;;;;;;;5.70;3.40;;;;;;;1.15;81.32;101013.31;5096919;28;20303;-67
2023/03/27 02:08:54;;;;;;;3.43;3.13;;;;;;;1.18;81.96;101018.53;5096925;28;20193;-67
2023/03/27 02:11:25;;;;;;;6.13;2.77;;;;;;;1.13;81.59;101010.72;5096850;28;20712;-67
2023/03/27 02:14:01;;;;;;;8.13;3.17;;;;;;;1.05;82.19;101017.97;5096699;28;20690;-66
2023/03/27 02:16:32;;;;;;;5.60;3.10;;;;;;;1.02;81.43;101020.72;5097297;28;20183;-67
2023/03/27 02:19:03;;;;;;;3.43;2.73;;;;;;;1.04;82.10;101029.44;5096705;28;20345;-66
2023/03/27 02:21:31;;;;;;;3.77;2.83;;;;;;;1.01;82.23;101026.91;5096581;28;20683;-66
2023/03/27 02:24:01;;;;;;;2.97;2.47;;;;;;;0.98;82.37;101026.97;5096539;28;20209;-66
2023/03/27 02:26:32;;;;;;;8.80;3.13;;;;;;;0.96;81.77;101034.03;5096319;28;20201;-66
2023/03/27 02:29:24;;;;;;;6.80;3.63;;;;;;;0.98;82.49;101042.78;5096440;28;20560;-66
2023/03/27 02:32:11;;;;;;;4.70;2.97;;;;;;;0.95;82.03;101042.88;5096503;28;20283;-66
2023/03/27 02:34:52;;;;;;;5.50;2.77;;;;;;;0.84;81.83;101053.72;5114841;28;20566;-67
2023/03/27 02:37:24;;;;;;;9.87;3.47;;;;;;;0.78;82.36;101060.00;5113322;28;20185;-66
2023/03/27 02:40:24;;;;;;;7.13;3.33;;;;;;;0.76;82.92;101064.44;5114246;28;20242;-66
2023/03/27 02:43:05;;;;;;;8.13;3.47;;;;;;;0.73;83.22;101068.94;5096351;28;20216;-67
2023/03/27 02:45:57;;;;;;;9.90;3.20;;;;;;;0.70;83.31;101076.94;5095692;28;20187;-66
2023/03/27 02:48:32;;;;;;;4.67;3.53;;;;;;;0.72;82.95;101088.28;5096197;28;20686;-66
2023/03/27 02:51:17;;;;;;;8.03;3.47;;;;;;;0.75;82.58;101089.09;5096173;28;20189;-66
2023/03/27 02:53:56;;;;;;;8.33;2.87;;;;;;;0.73;82.57;101085.63;5114388;28;20227;-67
2023/03/27 02:56:30;;;;;;;3.47;2.70;;;;;;;0.66;83.13;101088.44;5114007;28;20209;-66
2023/03/27 02:59:04;;;;;;;4.03;2.90;;;;;;;0.71;82.86;101079.50;5095983;28;20188;-66
2023/03/27 03:01:37;;;;;;;2.97;2.70;;;;;;;0.72;82.77;101083.91;5096111;28;20243;-66
2023/03/27 03:04:29;;;;;;;6.17;3.53;;;;;;;0.71;83.32;101092.69;5095900;28;20227;-66
2023/03/27 03:07:13;;;;;;;8.00;3.57;;;;;;;0.63;83.15;101084.13;5114632;28;20197;-66
2023/03/27 03:09:40;;;;;;;6.00;2.70;;;;;;;0.63;83.91;101092.03;5096617;28;20195;-66
2023/03/27 03:12:08;;;;;;;5.00;3.13;;;;;;;0.60;83.16;101094.75;5112680;28;20192;-66
2023/03/27 03:14:43;;;;;;;3.83;3.53;;;;;;;0.61;82.91;101097.34;5095586;28;20217;-66
2023/03/27 03:17:10;;;;;;;13.20;3.07;;;;;;;0.58;83.15;101110.59;5112650;28;20560;-66
2023/03/27 03:19:37;;;;;;;6.27;3.20;;;;;;;0.58;83.16;101107.94;5113934;28;20268;-66
2023/03/27 03:22:05;;;;;;;8.13;3.47;;;;;;;0.56;84.13;101115.03;5114372;28;20314;-66
2023/03/27 03:24:34;;;;;;;4.27;3.60;;;;;;;0.53;83.57;101109.84;5114039;28;20216;-66
2023/03/27 03:27:02;;;;;;;3.33;2.93;;;;;;;0.50;83.83;101117.78;5095786;28;20230;-66
2023/03/27 03:29:34;;;;;;;12.50;3.27;;;;;;;0.48;84.11;101122.25;5095420;28;20216;-66
2023/03/27 03:32:09;;;;;;;7.70;3.00;;;;;;;0.53;84.30;101125.66;5095719;28;20195;-66
2023/03/27 03:34:37;;;;;;;4.37;3.87;;;;;;;0.46;83.83;101134.59;5113594;28;20207;-66
2023/03/27 03:37:03;;;;;;;4.80;3.23;;;;;;;0.46;84.53;101147.78;5112414;28;20203;-66
2023/03/27 03:39:30;;;;;;;7.10;2.97;;;;;;;0.49;83.45;101141.56;5095581;28;20188;-66
2023/03/27 03:41:56;;;;;;;11.33;3.13;;;;;;;0.43;84.52;101147.81;5112316;28;20592;-66
2023/03/27 03:44:22;;;;;;;3.57;3.20;;;;;;;0.37;84.45;101151.47;5112294;28;20223;-66
2023/03/27 03:46:49;;;;;;;7.97;3.33;;;;;;;0.36;84.60;101149.75;5112312;28;20666;-66
2023/03/27 03:49:19;;;;;;;3.43;3.23;;;;;;;0.37;84.86;101154.09;5112284;28;20643;-66
2023/03/27 03:51:46;;;;;;;6.73;2.87;;;;;;;0.34;84.18;101158.59;5095262;28;20204;-66
2023/03/27 03:54:30;;;;;;;3.23;3.00;;;;;;;0.34;85.04;101161.22;5112218;28;20217;-67
2023/03/27 03:56:57;;;;;;;4.20;3.20;;;;;;;0.34;84.30;101167.38;5117773;28;20184;-67
2023/03/27 03:59:23;;;;;;;6.00;4.23;;;;;;;0.30;84.85;101172.72;5116335;28;20189;-67
2023/03/27 04:02:28;;;;;;;4.90;3.17;;;;;;;0.31;84.80;101170.06;5104357;28;20219;-67
2023/03/27 04:05:00;;;;;;;3.47;3.30;;;;;;;0.31;85.96;101172.72;5099474;28;20609;-67
2023/03/27 04:07:35;;;;;;;9.97;3.67;;;;;;;0.32;85.77;101170.94;5116188;28;20229;-67
2023/03/27 04:10:18;;;;;;;6.40;3.40;;;;;;;0.27;84.81;101176.31;5099944;28;20201;-66
2023/03/27 04:12:48;;;;;;;11.13;3.27;;;;;;;0.29;85.03;101185.03;5115993;28;20212;-66
2023/03/27 04:15:37;;;;;;;8.23;3.97;;;;;;;0.30;85.07;101188.53;5099658;28;20279;-66
2023/03/27 04:18:04;;;;;;;5.13;3.63;;;;;;;0.35;85.64;101194.56;5117259;28;20559;-66
2023/03/27 04:20:33;;;;;;;7.30;3.77;;;;;;;0.35;86.37;101191.94;5098868;28;20617;-66
2023/03/27 04:23:01;;;;;;;3.57;3.37;;;;;;;0.36;85.68;101202.44;5115701;28;20220;-66
2023/03/27 04:25:29;;;;;;;7.60;3.60;;;;;;;0.40;86.21;101201.44;5098861;28;20708;-66
2023/03/27 04:27:57;;;;;;;6.10;3.17;;;;;;;0.42;85.85;101204.94;5115735;28;20197;-66
2023/03/27 04:30:31;;;;;;;10.93;3.47;;;;;;;0.49;86.30;101200.41;5099316;28;20199;-66
2023/03/27 04:33:19;;;;;;;4.47;3.77;;;;;;;0.48;86.12;101211.84;5117135;28;20219;-66
2023/03/27 04:36:00;;;;;;;13.47;3.20;;;;;;;0.51;85.60;101218.81;5117215;28;20268;-66
2023/03/27 04:39:01;;;;;;;3.37;3.17;;;;;;;0.52;85.31;101224.03;5113620;28;20214;-66
2023/03/27 04:41:28;;;;;;;7.17;3.87;;;;;;;0.56;85.52;101227.47;5098452;28;20563;-66
2023/03/27 04:43:54;;;;;;;4.00;3.80;;;;;;;0.53;85.27;101232.81;5116745;28;20296;-66
2023/03/27 04:46:21;;;;;;;5.80;3.80;;;;;;;0.59;85.73;101230.91;5115535;28;20624;-66
2023/03/27 04:48:53;;;;;;;14.93;4.07;;;;;;;0.57;86.26;101227.44;5115975;28;20246;-66
2023/03/27 04:51:35;;;;;;;4.57;3.90;;;;;;;0.60;86.66;101231.78;5098546;28;20189;-66
2023/03/27 04:54:04;;;;;;;11.00;3.77;;;;;;;0.63;85.92;101242.25;5098071;28;20237;-66
2023/03/27 04:56:32;;;;;;;5.50;4.10;;;;;;;0.66;86.06;101254.50;5115247;28;20716;-66
2023/03/27 04:59:00;;;;;;;3.33;3.23;;;;;;;0.61;85.77;101241.41;5116851;28;20587;-66
2023/03/27 05:01:27;;;;;;;6.80;4.00;;;;;;;0.65;86.91;101245.72;5116648;28;20226;-66
2023/03/27 05:04:10;;;;;;;3.70;3.50;;;;;;;0.71;85.49;101252.63;5115074;28;20223;-66
2023/03/27 05:06:45;;;;;;;7.43;4.30;;;;;;;0.67;85.67;101256.22;5116264;28;20504;-66
2023/03/27 05:09:14;;;;;;;6.37;4.07;;;;;;;0.73;85.92;101256.09;5114977;28;20659;-66
2023/03/27 05:11:43;;;;;;;6.47;4.03;;;;;;;0.73;85.44;101259.59;5116297;28;20180;-66
2023/03/27 05:14:10;;;;;;;8.83;3.30;;;;;;;0.74;86.81;101261.34;5114877;28;20216;-66
2023/03/27 05:16:39;;;;;;;8.40;4.17;;;;;;;0.77;86.08;101260.41;5097825;28;20185;-66
2023/03/27 05:19:06;;;;;;;7.57;4.23;;;;;;;0.82;85.33;101266.44;5098577;28;20250;-66
2023/03/27 05:21:38;;;;;;;8.43;3.70;;;;;;;0.80;85.81;101269.09;5114999;28;20701;-66
2023/03/27 05:24:08;;;;;;;3.93;3.63;;;;;;;0.82;86.85;101274.34;5097484;28;20682;-66
2023/03/27 05:26:35;;;;;;;4.10;3.67;;;;;;;0.87;86.96;101282.16;5114505;28;20205;-66
2023/03/27 05:29:07;;;;;;;8.83;3.43;;;;;;;0.89;87.01;101285.59;5114575;28;20181;-66
2023/03/27 05:31:37;;;;;;;7.67;3.77;;;;;;;0.94;86.06;101289.88;5097822;28;20193;-65
2023/03/27 05:34:25;;;;;;;6.50;4.40;;;;;;;0.99;86.37;101290.63;5115621;28;20312;-66
2023/03/27 05:36:54;;;;;;;5.13;3.57;;;;;;;1.01;86.00;101301.16;5098336;28;20551;-66
2023/03/27 05:39:21;;;;;;;6.00;3.83;;;;;;;1.11;87.10;101304.44;5097401;28;20647;-66
2023/03/27 05:41:47;;;;;;;8.63;3.67;;;;;;;1.18;86.36;101312.16;5116070;28;20201;-65
2023/03/27 05:44:21;;;;;;;5.20;3.43;;;;;;;1.23;86.12;101307.66;5116044;28;20589;-65
2023/03/27 05:46:48;;;;;;;3.53;3.40;;;;;;;1.25;86.55;101311.13;5097201;28;20536;-65
2023/03/27 05:49:21;;;;;;;11.13;3.30;;;;;;;1.31;85.93;101319.78;5115063;28;20526;-66
2023/03/27 05:51:52;;;;;;;3.13;2.87;;;;;;;1.37;85.56;101320.53;5114813;28;20184;-65
2023/03/27 05:54:19;;;;;;;7.83;3.10;;;;;;;1.48;86.02;101326.41;5097394;28;20305;-66
2023/03/27 05:57:00;;;;;;;4.33;3.43;;;;;;;1.55;85.59;101320.97;5114905;28;20584;-66
2023/03/27 05:59:27;;;;;;;5.27;3.50;;;;;;;1.51;85.33;101327.22;5114047;28;20644;-66
2023/03/27 06:02:00;;;;;;;2.90;2.80;;;;;;;1.53;85.70;101326.28;5114083;28;20576;-66
2023/03/27 06:04:39;;;;;;;8.53;3.47;;;;;;;1.53;85.00;101336.81;5114064;28;20219;-66
2023/03/27 06:07:13;;;;;;;3.63;3.13;;;;;;;1.62;84.74;101333.09;5096940;28;20209;-66
2023/03/27 06:09:40;;;;;;;3.17;3.07;;;;;;;1.64;85.08;101342.72;5113761;28;20671;-66
2023/03/27 06:12:25;;;;;;;6.97;3.10;;;;;;;1.64;84.62;101336.56;5115064;28;20176;-66
2023/03/27 06:15:00;;;;;;;3.97;3.27;;;;;;;1.66;84.33;101337.41;5097294;28;20585;-66
2023/03/27 06:17:34;;;;;;;5.23;2.93;;;;;;;1.65;84.57;101346.22;5113915;28;20562;-66
2023/03/27 06:20:10;;;;;;;3.03;2.83;;;;;;;1.68;84.55;101352.31;5095809;28;20193;-66
2023/03/27 06:22:49;;;;;;;3.87;3.57;;;;;;;1.69;84.55;101363.72;5096367;28;20312;-66
2023/03/27 06:25:19;;;;;;;5.93;3.00;;;;;;;1.71;85.15;101356.63;5113709;28;20203;-66
2023/03/27 06:27:47;;;;;;;5.67;3.07;;;;;;;1.70;84.79;101360.19;5096253;28;20204;-66
2023/03/27 06:30:16;;;;;;;6.93;3.87;;;;;;;1.77;84.50;101367.03;5113438;28;20262;-66
2023/03/27 06:32:56;;;;;;;3.87;3.17;;;;;;;1.81;84.23;101368.69;5096443;28;20317;-67
2023/03/27 06:35:25;;;;;;;14.47;3.60;;;;;;;1.86;84.39;101372.09;5113426;28;20186;-66
2023/03/27 06:37:54;;;;;;;3.63;2.90;;;;;;;1.89;83.50;101374.66;5097219;28;20181;-66
2023/03/27 06:40:25;;;;;;;4.63;3.43;;;;;;;1.94;83.79;101371.91;5113164;28;20188;-66
2023/03/27 06:42:55;;;;;;;3.73;3.50;;;;;;;2.05;83.36;101375.13;5096271;28;20597;-67
2023/03/27 06:45:30;;;;;;;7.73;2.30;;;;;;;2.15;83.11;101383.66;5096500;28;20714;-67
2023/03/27 06:48:12;;;;;;;4.97;3.27;;;;;;;2.22;82.28;101382.59;5114366;28;20166;-67
2023/03/27 06:50:51;;;;;;;3.40;3.10;;;;;;;2.34;82.67;101376.97;5096128;28;20184;-67
2023/03/27 06:53:19;;;;;;;7.10;2.97;;;;;;;2.26;81.63;101391.34;5114132;28;20250;-67
2023/03/27 06:55:54;;;;;;;3.80;2.83;;;;;;;2.24;81.50;101393.16;5096085;28;20193;-67
2023/03/27 06:58:23;;;;;;;5.93;2.50;;;;;;;2.36;81.64;101392.81;5095909;28;20217;-67
2023/03/27 07:00:50;;;;;;;7.30;3.07;;;;;;;2.44;81.94;101382.91;5114178;28;20267;-67
2023/03/27 07:03:18;;;;;;;2.67;2.60;;;;;;;2.52;81.13;101387.97;5114295;28;20312;-67
2023/03/27 07:06:04;;;;;;;9.73;3.10;;;;;;;2.59;80.95;101392.19;5114435;28;20180;-67
2023/03/27 07:08:42;;;;;;;2.93;2.83;;;;;;;2.69;81.48;101398.94;5095746;28;20281;-67
2023/03/27 07:11:08;;;;;;;3.43;3.23;;;;;;;2.67;79.55;101397.25;5113964;28;20224;-67
2023/03/27 07:13:48;;;;;;;2.23;2.23;;;;;;;2.72;79.14;101406.78;5113185;28;20217;-67
2023/03/27 07:16:22;;;;;;;4.10;2.60;;;;;;;2.82;79.89;101409.16;5096496;28;20195;-66
2023/03/27 07:18:49;;;;;;;3.33;2.70;;;;;;;2.87;79.43;101416.06;5112553;28;20200;-66
2023/03/27 07:21:16;;;;;;;3.30;3.20;;;;;;;2.98;78.25;101421.06;5112524;28;20281;-66
2023/03/27 07:23:42;;;;;;;2.60;2.47;;;;;;;3.01;78.15;101423.59;5112393;28;20245;-67
2023/03/27 07:26:10;;;;;;;4.83;2.70;;;;;;;3.12;76.62;101431.25;5112554;28;20221;-67
2023/03/27 07:28:56;;;;;;;5.10;2.83;;;;;;;3.28;78.07;101432.53;5114325;28;20170;-67
2023/03/27 07:31:26;;;;;;;5.17;2.60;;;;;;;3.38;76.88;101427.81;5095221;28;20625;-67
2023/03/27 07:34:12;;;;;;;6.80;2.70;;;;;;;3.52;77.16;101432.66;5095528;28;20297;-67
2023/03/27 07:37:05;;;;;;;2.43;2.37;;;;;;;3.61;77.88;101432.38;5112696;28;20684;-67
2023/03/27 07:39:32;;;;;;;2.77;2.57;;;;;;;3.71;76.91;101435.59;5112302;28;20197;-67
2023/03/27 07:41:59;;;;;;;3.53;2.93;;;;;;;3.80;76.21;101437.94;5112209;28;20209;-67
2023/03/27 07:44:31;;;;;;;3.07;2.30;;;;;;;3.87;76.23;101443.94;5095278;28;20216;-67
2023/03/27 07:47:04;;;;;;;3.30;2.87;;;;;;;3.81;76.53;101439.69;5112325;28;20183;-67
2023/03/27 07:49:30;;;;;;;2.57;2.37;;;;;;;3.71;76.37;101448.84;5112185;28;20214;-67
2023/03/27 07:52:07;;;;;;;3.60;2.03;;;;;;;3.81;76.65;101453.81;5112560;28;20237;-67
2023/03/27 07:54:41;;;;;;;4.13;2.53;;;;;;;3.92;76.98;101450.78;5095142;28;20215;-67
2023/03/27 07:57:09;;;;;;;2.40;2.23;;;;;;;3.84;75.62;101463.44;5112495;28;20198;-67
2023/03/27 07:59:51;;;;;;;2.37;2.30;;;;;;;3.82;76.30;101460.81;5113838;28;20207;-67
2023/03/27 08:02:26;;;;;;;11.13;2.73;;;;;;;3.89;76.42;101472.09;5095849;28;20210;-67
2023/03/27 08:04:53;;;;;;;7.73;2.40;;;;;;;3.89;75.68;101463.28;5113423;28;20196;-67
2023/03/27 08:07:21;;;;;;;2.93;2.70;;;;;;;3.93;76.89;101468.44;5095972;28;20215;-67
2023/03/27 08:09:48;;;;;;;6.33;2.70;;;;;;;4.02;75.42;101467.25;5095075;28;20198;-67
2023/03/27 08:12:14;;;;;;;2.73;1.93;;;;;;;4.07;74.38;101465.34;5112605;28;20215;-67
2023/03/27 08:14:48;;;;;;;3.90;1.83;;;;;;;4.15;74.41;101479.22;5112307;28;20218;-67
2023/03/27 08:17:26;;;;;;;2.53;1.77;;;;;;;4.15;73.83;101476.56;5112887;28;20514;-67
2023/03/27 08:19:54;;;;;;;2.97;2.40;;;;;;;4.15;74.15;101481.84;5095013;28;20191;-67
2023/03/27 08:22:23;;;;;;;2.17;2.07;;;;;;;4.08;73.56;101488.28;5094891;28;20343;-68
2023/03/27 08:25:26;;;;;;;2.00;1.90;;;;;;;4.18;74.33;101480.91;5050540;28;20563;-67
2023/03/27 08:27:55;;;;;;;4.53;2.77;;;;;;;4.28;74.53;101482.31;5084167;28;20208;-67
2023/03/27 08:30:22;;;;;;;1.97;1.97;;;;;;;4.45;74.04;101489.69;5111918;28;20610;-67
2023/03/27 08:32:51;;;;;;;2.27;2.10;;;;;;;4.54;73.57;101493.84;5111816;28;20212;-67
2023/03/27 08:35:18;;;;;;;3.87;2.97;;;;;;;4.62;73.04;101495.31;5111849;28;20231;-67
2023/03/27 08:37:45;;;;;;;6.07;2.20;;;;;;;4.68;73.37;101502.19;5113120;28;20177;-67
2023/03/27 08:40:32;;;;;;;3.90;1.90;;;;;;;4.78;74.15;101500.94;5095148;28;20300;-67
2023/03/27 08:43:27;;;;;;;7.97;2.97;;;;;;;4.77;72.47;101504.50;5115680;28;20335;-67
2023/03/27 08:45:57;;;;;;;6.20;3.10;;;;;;;4.99;71.50;101499.31;5098496;28;20249;-67
2023/03/27 08:48:32;;;;;;;4.33;2.20;;;;;;;5.11;69.71;101504.16;5115449;28;20184;-67
2023/03/27 08:51:05;;;;;;;2.20;2.10;;;;;;;5.23;70.29;101505.50;5116694;28;20196;-67
2023/03/27 08:53:55;;;;;;;5.67;2.30;;;;;;;5.36;69.65;101505.03;5116876;28;20575;-67
2023/03/27 08:56:26;;;;;;;7.73;3.03;;;;;;;5.40;69.78;101515.50;5098837;28;20272;-67
2023/03/27 08:58:53;;;;;;;4.17;2.70;;;;;;;5.62;71.83;101512.88;5098157;28;20197;-67
2023/03/27 09:01:40;;;;;;;2.00;1.90;;;;;;;5.46;67.07;101525.91;5115152;28;20283;-67
2023/03/27 09:04:19;;;;;;;2.50;2.30;;;;;;;5.58;67.62;101521.91;5098260;28;20213;-67
2023/03/27 09:07:21;;;;;;;2.83;1.70;;;;;;;5.59;68.00;101520.97;5115949;28;20196;-67
2023/03/27 09:10:21;;;;;;;4.00;1.90;;;;;;;5.57;68.01;101521.97;5115323;28;20656;-67
2023/03/27 09:13:03;;;;;;;2.47;1.70;;;;;;;5.47;67.58;101524.09;5098036;28;20719;-67
2023/03/27 09:15:43;;;;;;;7.77;1.90;;;;;;;5.60;67.24;101521.84;5097896;28;20185;-67
2023/03/27 09:18:26;;;;;;;2.50;2.50;;;;;;;5.50;65.78;101530.16;5116121;28;20631;-67
2023/03/27 09:21:06;;;;;;;1.90;1.90;;;;;;;5.54;66.13;101522.94;5097787;28;20710;-67
2023/03/27 09:23:46;;;;;;;2.57;2.30;;;;;;;5.74;67.11;101519.53;5098546;28;20307;-67
2023/03/27 09:26:35;;;;;;;3.23;2.20;;;;;;;5.51;64.57;101534.56;5074246;28;20668;-67
2023/03/27 09:29:19;;;;;;;1.70;1.60;;;;;;;5.81;66.57;101534.31;5116224;28;20173;-67
2023/03/27 09:31:56;;;;;;;2.00;1.80;;;;;;;5.91;62.58;101530.38;5098487;28;20187;-67
2023/03/27 09:34:31;;;;;;;3.87;1.37;;;;;;;6.01;62.86;101530.03;5097835;28;20209;-67
2023/03/27 09:36:59;;;;;;;6.70;1.77;;;;;;;6.09;64.11;101527.94;5098360;28;20273;-67
2023/03/27 09:39:32;;;;;;;2.90;2.73;;;;;;;5.82;63.31;101524.53;5097350;28;20223;-67
2023/03/27 09:42:18;;;;;;;5.90;2.20;;;;;;;5.86;63.97;101537.63;5098171;28;20189;-67
2023/03/27 09:44:49;;;;;;;1.90;1.90;;;;;;;5.96;63.45;101535.50;5097305;28;20193;-66
2023/03/27 09:47:25;;;;;;;2.67;1.97;;;;;;;5.71;65.19;101547.09;5097438;28;20278;-66
2023/03/27 09:49:59;;;;;;;2.60;2.60;;;;;;;5.94;64.68;101540.91;5097814;28;20195;-66
2023/03/27 09:52:42;;;;;;;2.30;2.00;;;;;;;6.04;62.61;101537.91;5097221;28;20201;-67
2023/03/27 09:55:48;;;;;;;3.90;2.00;;;;;;;6.01;63.41;101541.53;5097351;28;20193;-66
2023/03/27 09:58:27;;;;;;;2.83;2.07;;;;;;;5.85;64.60;101554.53;5097110;28;20173;-66
2023/03/27 10:01:14;;;;;;;4.50;2.13;;;;;;;6.14;62.70;101556.06;5113992;28;20651;-66
2023/03/27 10:03:48;;;;;;;4.40;1.80;;;;;;;5.97;61.01;101548.75;5113923;28;20243;-67
2023/03/27 10:06:26;;;;;;;2.50;2.37;;;;;;;5.88;64.52;101557.06;5097200;28;20197;-67
2023/03/27 10:09:18;;;;;;;5.27;1.77;;;;;;;5.88;64.98;101551.75;5097695;28;20193;-66
2023/03/27 10:11:48;;;;;;;7.17;1.67;;;;;;;5.71;61.93;101557.72;5097683;28;20515;-66
2023/03/27 10:14:25;;;;;;;2.90;1.97;;;;;;;5.78;62.72;101560.16;5096870;28;20201;-67
2023/03/27 10:16:53;;;;;;;2.70;1.80;;;;;;;5.52;59.82;101562.00;5113962;28;20678;-66
2023/03/27 10:19:28;;;;;;;1.77;1.67;;;;;;;5.75;59.41;101562.00;5096585;28;20221;-66
2023/03/27 10:22:05;;;;;;;3.37;2.47;;;;;;;6.12;64.06;101563.25;5097641;28;20183;-66
2023/03/27 10:24:40;;;;;;;2.23;2.00;;;;;;;6.24;60.12;101564.53;5096417;28;20632;-67
2023/03/27 10:27:33;;;;;;;3.13;1.87;;;;;;;6.42;60.21;101565.59;5103695;28;20215;-66
2023/03/27 10:30:29;;;;;;;2.67;1.97;;;;;;;6.11;61.44;101580.13;5115171;28;20181;-66
2023/03/27 10:33:10;;;;;;;2.20;2.00;;;;;;;5.75;62.76;101569.09;5113467;28;20228;-66
2023/03/27 10:35:48;;;;;;;1.77;1.67;;;;;;;5.54;62.82;101573.44;5096377;28;20666;-66
2023/03/27 10:38:21;;;;;;;2.10;2.00;;;;;;;5.44;62.96;101580.88;5113337;28;20196;-66
2023/03/27 10:40:57;;;;;;;2.30;2.30;;;;;;;5.63;63.62;101570.44;5096334;28;20655;-66
2023/03/27 10:43:39;;;;;;;1.67;1.63;;;;;;;5.94;61.68;101574.63;5113655;28;20213;-67
2023/03/27 10:46:37;;;;;;;1.97;1.63;;;;;;;6.28;63.46;101566.16;5096292;28;20185;-66
2023/03/27 10:49:24;;;;;;;2.50;2.40;;;;;;;6.41;62.06;101570.97;5113411;28;20189;-66
2023/03/27 10:52:17;;;;;;;2.10;2.00;;;;;;;6.59;60.91;101570.22;5113006;28;20181;-66
2023/03/27 10:55:34;;;;;;;1.70;1.70;;;;;;;6.78;59.57;101576.50;5096328;28;20193;-66
2023/03/27 10:58:11;;;;;;;1.30;1.30;;;;;;;6.42;58.61;101576.25;5096205;28;20260;-66
2023/03/27 11:00:45;;;;;;;1.87;1.77;;;;;;;6.31;56.79;101574.00;5096290;28;20197;-66
2023/03/27 11:03:26;;;;;;;1.50;1.40;;;;;;;6.43;58.46;101577.97;5112787;28;20232;-66
2023/03/27 11:06:01;;;;;;;2.07;1.97;;;;;;;6.35;58.31;101575.63;5095849;28;20185;-66
2023/03/27 11:08:31;;;;;;;2.03;1.93;;;;;;;6.12;59.42;101575.66;5095790;28;20196;-66
2023/03/27 11:11:14;;;;;;;2.63;1.97;;;;;;;6.04;59.65;101589.28;5112727;28;20197;-66
2023/03/27 11:13:46;;;;;;;1.63;1.63;;;;;;;6.03;57.73;101587.53;5095722;28;20212;-66
2023/03/27 11:16:32;;;;;;;2.13;1.93;;;;;;;6.20;58.39;101591.31;5095706;28;20190;-66
2023/03/27 11:20:05;;;;;;;3.27;2.30;;;;;;;6.65;58.44;101595.72;5113697;28;20327;-66
2023/03/27 11:23:01;;;;;;;2.97;2.00;;;;;;;6.75;58.69;101594.38;5095909;28;20303;-66
2023/03/27 11:25:45;;;;;;;1.97;1.93;;;;;;;6.42;58.52;101599.31;5096375;28;20192;-66
2023/03/27 11:28:32;;;;;;;2.03;2.03;;;;;;;6.67;61.19;101608.03;5095760;28;20685;-66
2023/03/27 11:31:30;;;;;;;3.80;1.70;;;;;;;6.98;61.08;101617.41;5113806;28;20169;-66
2023/03/27 11:34:35;;;;;;;2.83;1.90;;;;;;;6.59;61.87;101619.00;5113614;28;20270;-66
2023/03/27 11:37:33;;;;;;;1.67;1.67;;;;;;;7.10;63.91;101621.34;5113626;28;20224;-66
2023/03/27 11:40:08;;;;;;;2.87;2.50;;;;;;;7.24;63.73;101630.47;5095536;28;20230;-66
2023/03/27 11:42:41;;;;;;;4.63;2.23;;;;;;;6.93;64.29;101630.03;5095327;28;20180;-66
2023/03/27 11:45:14;;;;;;;2.47;2.33;;;;;;;6.62;66.32;101638.44;5095431;28;20185;-66
2023/03/27 11:48:03;;;;;;;2.53;2.43;;;;;;;6.51;67.41;101636.19;5113706;28;20214;-65
2023/03/27 11:50:42;;;;;;;1.57;1.57;;;;;;;6.09;66.56;101651.13;5112373;28;20181;-66
2023/03/27 11:53:21;;;;;;;2.43;2.33;;;;;;;5.84;67.09;101634.31;5095319;28;20205;-66
2023/03/27 11:56:50;;;;;;;1.70;1.70;;;;;;;5.49;69.00;101642.66;5079231;28;20208;-66
2023/03/27 11:59:45;;;;;;;2.50;2.50;;;;;;;5.44;69.94;101634.00;5112407;28;20235;-66
2023/03/27 12:02:47;;;;;;;2.27;2.07;;;;;;;5.92;71.05;101638.44;5096087;28;20216;-66
2023/03/27 12:05:49;;;;;;;1.40;1.40;;;;;;;6.43;71.42;101631.19;5096067;28;20181;-66
2023/03/27 12:08:58;;;;;;;2.23;2.23;;;;;;;6.79;67.72;101627.94;5112420;28;20185;-66
2023/03/27 12:11:28;;;;;;;1.90;1.90;;;;;;;7.13;64.40;101624.72;5095426;28;20238;-66
2023/03/27 12:14:04;;;;;;;1.50;1.50;;;;;;;7.22;62.39;101634.97;5112049;28;20203;-66